South Franklin, Vermont
Current Conditions -  °F | °C
As of 8:15 PM on Tuesday 27 Jan 2015 (Local Time) from KFSO Reporting Station
Overcast Overcast  
Wind Chill: -21°   Ceiling: 9000
Heat Index: -13°   Visibility: NA
Dew Point: -17°   Wind: 13mph
Humidity: 69%   Direction: 360°N
Pressure: 29.99"   Gusts: 22mph
Location:  44.8764°N, 72.758°W
Report Text: KFSO 280115Z AUTO 36011G19KT OVC090 M13/M17 A2999 RMK AO2 T11271173 PWINO
Loading
Personal Weather Stations






























Interactive Weather Map New forecast layout! Learn more

10-Day Weather Forecast

Advertisements
Track Severe Weather on mobile